createdAt,value
2023-02-09T00:00:29.041Z,13.30
2023-02-09T00:01:05.036Z,12.63
2023-02-09T00:01:39.441Z,11.63
2023-02-09T00:02:13.594Z,14.05
2023-02-09T00:02:49.370Z,12.65
2023-02-09T00:03:23.440Z,11.55
2023-02-09T00:03:57.518Z,11.77
2023-02-09T00:04:35.437Z,12.80
2023-02-09T00:05:09.861Z,15.27
2023-02-09T00:05:45.150Z,13.80
2023-02-09T00:06:20.688Z,14.15
2023-02-09T00:06:55.086Z,13.93
2023-02-09T00:07:32.437Z,12.32
2023-02-09T00:08:07.102Z,12.20
2023-02-09T00:08:40.802Z,10.20
2023-02-09T00:09:15.794Z,14.38
2023-02-09T00:09:49.979Z,17.73
2023-02-09T00:10:25.582Z,14.10
2023-02-09T00:11:00.525Z,13.82
2023-02-09T00:11:52.450Z,15.52
2023-02-09T00:12:45.983Z,11.70
2023-02-09T00:13:25.938Z,11.80
2023-02-09T00:13:59.484Z,15.50
2023-02-09T00:14:34.528Z,12.65
2023-02-09T00:15:11.829Z,13.50
2023-02-09T00:15:49.556Z,11.35
2023-02-09T00:16:27.554Z,15.23
2023-02-09T00:17:02.489Z,12.68
2023-02-09T00:17:36.637Z,13.07
2023-02-09T00:18:11.826Z,13.60
2023-02-09T00:18:45.343Z,15.05
2023-02-09T00:19:20.701Z,13.73
2023-02-09T00:19:55.753Z,15.00
2023-02-09T00:20:29.892Z,17.35
2023-02-09T00:21:04.914Z,13.25
2023-02-09T00:21:39.284Z,15.70
2023-02-09T00:22:14.770Z,14.15
2023-02-09T00:22:50.929Z,13.38
2023-02-09T00:23:24.591Z,23.05
2023-02-09T00:24:00.462Z,16.50
2023-02-09T00:24:33.998Z,13.00
2023-02-09T00:25:08.654Z,13.60
2023-02-09T00:25:42.908Z,15.73
2023-02-09T00:26:18.212Z,15.50
2023-02-09T00:26:51.842Z,14.25
2023-02-09T00:27:27.210Z,16.05
2023-02-09T00:28:00.228Z,15.40
2023-02-09T00:28:34.533Z,16.98
2023-02-09T00:29:10.410Z,11.98
2023-02-09T00:29:44.512Z,12.95
2023-02-09T00:30:18.072Z,14.85
2023-02-09T00:30:53.728Z,12.80
2023-02-09T00:31:27.377Z,19.27
2023-02-09T00:32:01.090Z,17.95
2023-02-09T00:32:35.810Z,15.57
2023-02-09T00:33:10.423Z,14.82
2023-02-09T00:33:44.267Z,13.32
2023-02-09T00:34:19.653Z,14.35
2023-02-09T00:34:54.681Z,13.48
2023-02-09T00:35:28.752Z,14.82
2023-02-09T00:36:04.080Z,16.42
2023-02-09T00:36:37.232Z,15.75
2023-02-09T00:37:10.916Z,12.45
2023-02-09T00:37:45.724Z,19.23
2023-02-09T00:38:21.519Z,24.50
2023-02-09T00:38:55.773Z,20.15
2023-02-09T00:39:31.256Z,17.80
2023-02-09T00:40:05.311Z,17.05
2023-02-09T00:40:38.881Z,17.17
2023-02-09T00:41:15.326Z,18.73
2023-02-09T00:42:09.986Z,14.10
2023-02-09T00:42:43.627Z,15.15
2023-02-09T00:43:18.435Z,16.00
2023-02-09T00:43:52.663Z,12.88
2023-02-09T00:44:28.143Z,18.83
2023-02-09T00:45:03.044Z,15.90
2023-02-09T00:45:36.603Z,17.02
2023-02-09T00:46:11.815Z,13.05
2023-02-09T00:46:44.884Z,14.20
2023-02-09T00:47:18.609Z,19.02
2023-02-09T00:47:53.318Z,11.82
2023-02-09T00:48:27.674Z,12.98
2023-02-09T00:49:03.243Z,14.98
2023-02-09T00:49:40.793Z,17.50
2023-02-09T00:50:14.808Z,13.88
2023-02-09T00:50:48.411Z,16.83
2023-02-09T00:51:23.013Z,15.27
2023-02-09T00:51:56.618Z,13.13
2023-02-09T00:52:32.239Z,14.05
2023-02-09T00:53:06.654Z,14.38
2023-02-09T00:53:41.517Z,14.20
2023-02-09T00:54:15.045Z,14.00
2023-02-09T00:54:50.219Z,14.90
2023-02-09T00:55:24.416Z,15.35
2023-02-09T00:56:00.032Z,13.38
2023-02-09T00:56:33.691Z,11.85
2023-02-09T00:57:07.876Z,16.10
2023-02-09T00:57:42.022Z,12.85
2023-02-09T00:58:16.076Z,14.55
2023-02-09T00:58:50.639Z,14.50
2023-02-09T00:59:24.383Z,17.17
2023-02-09T00:59:58.976Z,14.38
2023-02-09T01:00:33.353Z,13.00
2023-02-09T01:01:08.476Z,15.32
2023-02-09T01:01:43.093Z,17.00
2023-02-09T01:02:16.801Z,12.75
2023-02-09T01:02:51.101Z,13.05
2023-02-09T01:03:26.035Z,14.40
2023-02-09T01:04:01.296Z,13.32
2023-02-09T01:04:34.721Z,14.10
2023-02-09T01:05:10.495Z,14.07
2023-02-09T01:05:44.838Z,15.27
2023-02-09T01:06:18.897Z,12.90
2023-02-09T01:06:53.127Z,21.13
2023-02-09T01:07:27.482Z,17.70
2023-02-09T01:08:01.619Z,16.65
2023-02-09T01:08:36.770Z,15.10
2023-02-09T01:09:11.247Z,14.05
2023-02-09T01:09:45.752Z,15.50
2023-02-09T01:10:21.799Z,17.55
2023-02-09T01:10:56.757Z,14.57
2023-02-09T01:11:31.260Z,14.55
2023-02-09T01:12:06.206Z,16.60
2023-02-09T01:12:40.178Z,15.38
2023-02-09T01:13:14.165Z,18.50
2023-02-09T01:13:47.956Z,12.98
2023-02-09T01:14:22.147Z,15.68
2023-02-09T01:14:56.360Z,16.55
2023-02-09T01:15:30.222Z,16.55
2023-02-09T01:16:07.285Z,13.93
2023-02-09T01:16:40.890Z,16.38
2023-02-09T01:17:14.828Z,17.92
2023-02-09T01:17:50.541Z,14.15
2023-02-09T01:18:24.331Z,15.18
2023-02-09T01:18:59.964Z,14.63
2023-02-09T01:19:36.260Z,14.98
2023-02-09T01:20:10.965Z,13.30
2023-02-09T01:20:45.097Z,14.10
2023-02-09T01:21:22.004Z,13.32
2023-02-09T01:21:55.859Z,15.20
2023-02-09T01:22:30.633Z,20.08
2023-02-09T01:23:06.280Z,13.32
2023-02-09T01:23:40.105Z,15.25
2023-02-09T01:24:16.605Z,14.70
2023-02-09T01:24:49.946Z,13.27
2023-02-09T01:25:23.712Z,13.90
2023-02-09T01:26:03.875Z,15.57
2023-02-09T01:26:40.594Z,14.93
2023-02-09T01:27:14.685Z,15.85
2023-02-09T01:27:47.990Z,17.27
2023-02-09T01:28:21.878Z,15.00
2023-02-09T01:28:57.031Z,16.67
2023-02-09T01:29:31.538Z,15.80
2023-02-09T01:30:05.367Z,17.98
2023-02-09T01:30:39.628Z,17.27
2023-02-09T01:31:20.528Z,16.13
2023-02-09T01:31:58.204Z,14.18
2023-02-09T01:32:31.465Z,12.85
2023-02-09T01:33:05.361Z,12.70
2023-02-09T01:33:40.223Z,12.93
2023-02-09T01:34:14.949Z,14.05
2023-02-09T01:34:52.352Z,16.38
2023-02-09T01:35:25.529Z,14.60
2023-02-09T01:35:58.614Z,13.52
2023-02-09T01:36:33.702Z,12.52
2023-02-09T01:37:09.514Z,14.65
2023-02-09T01:37:44.355Z,15.40
2023-02-09T01:38:18.580Z,14.38
2023-02-09T01:38:53.735Z,14.63
2023-02-09T01:39:28.168Z,12.38
2023-02-09T01:40:03.098Z,14.65
2023-02-09T01:40:36.984Z,13.25
2023-02-09T01:41:10.892Z,12.82
2023-02-09T01:41:46.438Z,12.25
2023-02-09T01:42:22.822Z,14.85
2023-02-09T01:42:58.245Z,19.45
2023-02-09T01:43:48.116Z,14.98
2023-02-09T01:44:42.144Z,14.25
2023-02-09T01:45:21.969Z,14.50
2023-02-09T01:45:56.092Z,12.60
2023-02-09T01:46:31.846Z,13.27
2023-02-09T01:47:07.218Z,11.13
2023-02-09T01:47:45.131Z,13.20
2023-02-09T01:48:23.007Z,13.48
2023-02-09T01:49:02.761Z,13.55
2023-02-09T01:49:38.858Z,14.27
2023-02-09T01:50:15.134Z,14.50
2023-02-09T01:50:52.574Z,15.25
2023-02-09T01:51:27.111Z,12.55
2023-02-09T01:52:03.292Z,14.98
2023-02-09T01:52:37.151Z,13.45
2023-02-09T01:53:10.558Z,14.70
2023-02-09T01:53:44.790Z,13.05
2023-02-09T01:54:20.555Z,12.07
2023-02-09T01:54:58.978Z,13.35
2023-02-09T01:55:36.539Z,12.40
2023-02-09T01:56:12.706Z,12.98
2023-02-09T01:56:49.413Z,14.23
2023-02-09T01:57:26.341Z,12.52
2023-02-09T01:58:03.072Z,13.13
2023-02-09T01:58:38.257Z,14.30
2023-02-09T01:59:12.551Z,15.15
2023-02-09T01:59:49.765Z,13.00
2023-02-09T02:00:24.933Z,14.05
2023-02-09T02:01:00.277Z,12.10
2023-02-09T02:01:34.195Z,13.60
2023-02-09T02:02:09.011Z,12.25
2023-02-09T02:02:43.699Z,16.08
2023-02-09T02:03:18.409Z,13.88
2023-02-09T02:03:53.542Z,14.15
2023-02-09T02:04:27.954Z,16.25
2023-02-09T02:05:02.110Z,13.15
2023-02-09T02:05:37.885Z,14.13
2023-02-09T02:06:13.838Z,15.52
2023-02-09T02:06:48.045Z,15.32
2023-02-09T02:07:29.195Z,14.38
2023-02-09T02:08:04.778Z,13.88
2023-02-09T02:08:42.892Z,16.00
2023-02-09T02:09:19.396Z,15.35
2023-02-09T02:09:57.109Z,14.32
2023-02-09T02:10:32.155Z,14.75
2023-02-09T02:11:06.407Z,14.95
2023-02-09T02:11:39.974Z,13.75
2023-02-09T02:12:17.685Z,11.88
2023-02-09T02:12:51.842Z,13.25
2023-02-09T02:13:25.934Z,13.90
2023-02-09T02:14:00.807Z,13.05
2023-02-09T02:14:35.340Z,11.73
2023-02-09T02:15:09.292Z,11.95
2023-02-09T02:15:48.238Z,13.02
2023-02-09T02:16:51.511Z,13.07
2023-02-09T02:17:32.343Z,13.23
2023-02-09T02:18:21.574Z,13.30
2023-02-09T02:19:04.301Z,13.35
2023-02-09T02:19:51.032Z,14.07
2023-02-09T02:20:49.391Z,13.40
2023-02-09T02:21:39.259Z,11.98
2023-02-09T02:22:30.772Z,12.80
2023-02-09T02:23:11.706Z,13.43
2023-02-09T02:24:32.758Z,13.82
2023-02-09T02:25:19.742Z,12.98
2023-02-09T02:26:17.581Z,13.68
2023-02-09T02:26:56.939Z,12.93
2023-02-09T02:27:33.037Z,12.80
2023-02-09T02:28:21.404Z,12.77
2023-02-09T02:29:09.844Z,12.75
2023-02-09T02:30:09.080Z,10.95
2023-02-09T02:30:49.927Z,12.13
2023-02-09T02:31:38.481Z,13.02
2023-02-09T02:32:31.230Z,14.68
2023-02-09T02:33:08.872Z,10.98
2023-02-09T02:33:45.213Z,12.93
2023-02-09T02:34:22.198Z,13.05
2023-02-09T02:35:01.325Z,12.48
2023-02-09T02:35:38.992Z,11.90
2023-02-09T02:36:18.224Z,11.95
2023-02-09T02:36:58.097Z,12.05
2023-02-09T02:37:44.817Z,14.55
2023-02-09T02:38:21.276Z,12.82
2023-02-09T02:38:58.016Z,13.82
2023-02-09T02:39:39.305Z,13.30
2023-02-09T02:40:17.868Z,12.85
2023-02-09T02:40:57.352Z,14.85
2023-02-09T02:41:53.923Z,14.02
2023-02-09T02:42:52.657Z,15.45
2023-02-09T02:43:35.436Z,13.15
2023-02-09T02:44:12.340Z,13.52
2023-02-09T02:44:48.514Z,14.15
2023-02-09T02:45:27.985Z,14.48
2023-02-09T02:46:04.149Z,12.65
2023-02-09T02:46:41.439Z,14.32
2023-02-09T02:47:18.809Z,11.25
2023-02-09T02:47:57.930Z,15.35
2023-02-09T02:48:36.000Z,13.30
2023-02-09T02:49:12.393Z,13.73
2023-02-09T02:49:50.795Z,11.82
2023-02-09T02:50:27.313Z,14.60
2023-02-09T02:51:04.124Z,16.25
2023-02-09T02:51:42.164Z,12.50
2023-02-09T02:52:15.914Z,12.38
2023-02-09T02:52:49.782Z,14.75
2023-02-09T02:53:25.802Z,14.05
2023-02-09T02:54:03.221Z,15.02
2023-02-09T02:54:39.995Z,13.02
2023-02-09T02:55:16.124Z,12.38
2023-02-09T02:55:51.364Z,12.73
2023-02-09T02:56:27.706Z,12.70
2023-02-09T02:57:04.343Z,14.10
2023-02-09T02:57:41.007Z,13.50
2023-02-09T02:58:17.349Z,15.07
2023-02-09T02:58:52.722Z,17.50
2023-02-09T02:59:29.309Z,13.00
2023-02-09T03:00:06.655Z,12.88
2023-02-09T03:00:43.594Z,14.90
2023-02-09T03:01:22.057Z,16.40
2023-02-09T03:01:59.527Z,14.80
2023-02-09T03:02:35.203Z,24.48
2023-02-09T03:03:11.707Z,15.80
2023-02-09T03:03:46.619Z,13.05
2023-02-09T03:04:23.175Z,17.95
2023-02-09T03:04:57.194Z,16.10
2023-02-09T03:05:31.054Z,11.70
2023-02-09T03:06:07.554Z,13.18
2023-02-09T03:06:41.248Z,13.30
2023-02-09T03:07:15.339Z,12.80
2023-02-09T03:07:50.806Z,14.05
2023-02-09T03:08:24.491Z,13.70
2023-02-09T03:08:59.172Z,14.25
2023-02-09T03:09:33.458Z,16.23
2023-02-09T03:10:22.283Z,14.13
2023-02-09T03:11:00.682Z,14.50
2023-02-09T03:11:36.445Z,13.35
2023-02-09T03:12:17.319Z,14.32
2023-02-09T03:12:55.137Z,14.48
2023-02-09T03:13:37.826Z,14.55
2023-02-09T03:14:16.703Z,14.63
2023-02-09T03:15:00.494Z,14.82
2023-02-09T03:15:40.385Z,14.27
2023-02-09T03:16:19.309Z,14.40
2023-02-09T03:16:57.726Z,15.13
2023-02-09T03:17:39.341Z,16.23
2023-02-09T03:18:17.988Z,14.63
2023-02-09T03:19:07.007Z,12.98
2023-02-09T03:19:43.148Z,13.38
2023-02-09T03:20:22.371Z,16.02
2023-02-09T03:20:57.790Z,12.95
2023-02-09T03:21:38.674Z,14.07
2023-02-09T03:22:15.808Z,13.85
2023-02-09T03:22:58.243Z,16.23
2023-02-09T03:23:34.094Z,13.85
2023-02-09T03:24:11.692Z,15.10
2023-02-09T03:24:51.657Z,17.65
2023-02-09T03:25:29.078Z,18.52
2023-02-09T03:26:08.717Z,17.63
2023-02-09T03:26:45.848Z,13.15
2023-02-09T03:27:21.073Z,16.50
2023-02-09T03:27:57.544Z,13.00
2023-02-09T03:28:34.163Z,15.05
2023-02-09T03:29:10.854Z,12.90
2023-02-09T03:29:46.993Z,12.90
2023-02-09T03:30:22.086Z,13.20
2023-02-09T03:30:57.206Z,13.13
2023-02-09T03:31:32.967Z,12.20
2023-02-09T03:32:07.423Z,14.70
2023-02-09T03:32:43.820Z,15.90
2023-02-09T03:33:21.171Z,13.07
2023-02-09T03:33:57.024Z,13.13
2023-02-09T03:34:32.615Z,15.20
2023-02-09T03:35:07.528Z,17.50
2023-02-09T03:35:42.919Z,16.17
2023-02-09T03:36:19.454Z,12.80
2023-02-09T03:36:54.365Z,13.55
2023-02-09T03:37:28.651Z,15.15
2023-02-09T03:38:07.502Z,13.10
2023-02-09T03:38:41.372Z,13.20
2023-02-09T03:39:14.659Z,13.95
2023-02-09T03:39:50.034Z,14.93
2023-02-09T03:40:24.205Z,13.30
2023-02-09T03:40:57.790Z,13.73
2023-02-09T03:41:32.816Z,15.23
2023-02-09T03:42:07.399Z,14.77
2023-02-09T03:42:41.490Z,17.02
2023-02-09T03:43:16.847Z,15.07
2023-02-09T03:44:09.107Z,16.30
2023-02-09T03:44:44.310Z,14.38
2023-02-09T03:45:19.303Z,14.13
2023-02-09T03:45:53.286Z,15.63
2023-02-09T03:46:26.938Z,17.38
2023-02-09T03:47:03.284Z,13.75
2023-02-09T03:47:36.854Z,14.18
2023-02-09T03:48:11.534Z,14.98
2023-02-09T03:48:45.622Z,11.25
2023-02-09T03:49:19.267Z,13.30
2023-02-09T03:49:52.200Z,12.73
2023-02-09T03:50:26.716Z,16.58
2023-02-09T03:51:02.246Z,14.18
2023-02-09T03:51:36.082Z,11.80
2023-02-09T03:52:13.102Z,16.25
2023-02-09T03:52:47.900Z,13.55
2023-02-09T03:53:21.754Z,14.65
2023-02-09T03:53:56.021Z,15.27
2023-02-09T03:54:31.715Z,14.05
2023-02-09T03:55:06.305Z,17.85
2023-02-09T03:55:39.959Z,18.38
2023-02-09T03:56:15.417Z,15.02
2023-02-09T03:56:49.633Z,13.02
2023-02-09T03:57:24.692Z,15.05
2023-02-09T03:57:58.006Z,14.57
2023-02-09T03:58:31.737Z,13.27
2023-02-09T03:59:07.330Z,14.77
2023-02-09T03:59:41.714Z,16.60
2023-02-09T04:00:17.181Z,13.38
2023-02-09T04:00:52.219Z,16.55
2023-02-09T04:01:25.353Z,13.73
2023-02-09T04:02:00.645Z,12.75
2023-02-09T04:02:35.303Z,17.25
2023-02-09T04:03:09.616Z,16.25
2023-02-09T04:03:45.011Z,13.60
2023-02-09T04:04:19.765Z,17.42
2023-02-09T04:04:55.049Z,14.15
2023-02-09T04:05:29.634Z,13.57
2023-02-09T04:06:03.266Z,18.45
2023-02-09T04:06:39.033Z,15.23
2023-02-09T04:07:14.150Z,18.05
2023-02-09T04:07:48.919Z,14.30
2023-02-09T04:08:24.002Z,16.35
2023-02-09T04:08:58.520Z,13.07
2023-02-09T04:09:33.179Z,15.02
2023-02-09T04:10:09.216Z,15.07
2023-02-09T04:10:42.806Z,14.77
2023-02-09T04:11:17.974Z,13.85
2023-02-09T04:11:51.878Z,14.18
2023-02-09T04:12:26.447Z,13.98
2023-02-09T04:13:01.085Z,12.07
2023-02-09T04:13:35.888Z,13.70
2023-02-09T04:14:11.333Z,16.48
2023-02-09T04:14:45.430Z,15.02
2023-02-09T04:15:19.895Z,14.98
2023-02-09T04:15:54.863Z,13.77
2023-02-09T04:16:28.608Z,14.23
2023-02-09T04:17:07.270Z,16.13
2023-02-09T04:17:41.425Z,18.17
2023-02-09T04:18:15.618Z,16.67
2023-02-09T04:18:51.873Z,14.15
2023-02-09T04:19:25.884Z,16.77
2023-02-09T04:19:59.965Z,16.45
2023-02-09T04:20:35.610Z,13.98
2023-02-09T04:21:09.700Z,14.95
2023-02-09T04:21:45.179Z,16.63
2023-02-09T04:22:18.872Z,15.70
2023-02-09T04:22:53.908Z,15.13
2023-02-09T04:23:29.229Z,15.85
2023-02-09T04:24:03.395Z,13.27
2023-02-09T04:24:37.370Z,16.23
2023-02-09T04:25:12.089Z,17.83
2023-02-09T04:25:46.695Z,15.63
2023-02-09T04:26:20.523Z,13.73
2023-02-09T04:26:56.269Z,14.82
2023-02-09T04:27:30.554Z,15.52
2023-02-09T04:28:06.304Z,14.27
2023-02-09T04:28:40.777Z,15.02
2023-02-09T04:29:15.093Z,14.80
2023-02-09T04:29:50.347Z,13.55
2023-02-09T04:30:25.729Z,15.88
2023-02-09T04:31:00.669Z,16.08
2023-02-09T04:31:36.110Z,12.27
2023-02-09T04:32:09.866Z,16.67
2023-02-09T04:32:44.279Z,16.52
2023-02-09T04:33:19.021Z,15.82
2023-02-09T04:33:54.547Z,18.45
2023-02-09T04:34:30.264Z,17.10
2023-02-09T04:35:05.211Z,12.90
2023-02-09T04:35:39.971Z,15.80
2023-02-09T04:36:15.219Z,15.30
2023-02-09T04:36:49.934Z,16.15
2023-02-09T04:37:24.189Z,12.75
2023-02-09T04:37:58.816Z,15.20
2023-02-09T04:38:34.390Z,15.90
2023-02-09T04:39:07.904Z,19.45
2023-02-09T04:39:41.618Z,14.05
2023-02-09T04:40:16.916Z,16.23
2023-02-09T04:40:52.564Z,16.67
2023-02-09T04:41:27.701Z,14.90
2023-02-09T04:42:01.693Z,19.80
2023-02-09T04:42:35.974Z,15.80
2023-02-09T04:43:11.331Z,18.85
2023-02-09T04:43:45.444Z,14.15
2023-02-09T04:44:20.166Z,15.98
2023-02-09T04:44:54.853Z,16.13
2023-02-09T04:45:28.511Z,16.67
2023-02-09T04:46:04.234Z,21.42
2023-02-09T04:46:37.950Z,17.38
2023-02-09T04:47:13.118Z,16.52
2023-02-09T04:47:49.510Z,14.13
2023-02-09T04:48:24.811Z,17.38
2023-02-09T04:49:01.118Z,17.02
2023-02-09T04:49:36.164Z,33.58
2023-02-09T04:50:12.914Z,24.20
2023-02-09T04:50:47.435Z,17.77
2023-02-09T04:51:22.203Z,16.40
2023-02-09T04:51:56.491Z,16.52
2023-02-09T04:52:30.043Z,14.55
2023-02-09T04:53:05.020Z,17.20
2023-02-09T04:53:39.181Z,17.55
2023-02-09T04:54:13.786Z,18.75
2023-02-09T04:54:48.467Z,23.00
2023-02-09T04:55:23.163Z,28.35
2023-02-09T04:55:58.397Z,18.33
2023-02-09T04:56:32.819Z,21.50
2023-02-09T04:57:26.257Z,13.52
2023-02-09T04:58:18.510Z,16.52
2023-02-09T04:59:11.372Z,16.00
2023-02-09T04:59:46.300Z,16.23
2023-02-09T05:00:21.330Z,15.05
2023-02-09T05:00:56.691Z,13.35
2023-02-09T05:01:31.374Z,17.05
2023-02-09T05:02:05.655Z,17.23
2023-02-09T05:02:39.910Z,14.93
2023-02-09T05:03:13.517Z,16.10
2023-02-09T05:03:50.607Z,19.90
2023-02-09T05:04:26.210Z,26.42
2023-02-09T05:05:01.320Z,17.27
2023-02-09T05:05:41.652Z,19.13
2023-02-09T05:06:16.275Z,16.27
2023-02-09T05:06:51.000Z,15.13
2023-02-09T05:07:27.096Z,16.58
2023-02-09T05:08:01.245Z,17.63
2023-02-09T05:08:36.477Z,14.80
2023-02-09T05:09:10.882Z,15.90
2023-02-09T05:09:44.550Z,15.35
2023-02-09T05:10:19.711Z,13.23
2023-02-09T05:10:53.667Z,15.18
2023-02-09T05:11:30.866Z,16.27
2023-02-09T05:12:04.730Z,13.68
2023-02-09T05:12:38.370Z,13.82
2023-02-09T05:13:13.826Z,12.38
2023-02-09T05:13:48.827Z,16.42
2023-02-09T05:14:22.019Z,14.75
2023-02-09T05:14:57.364Z,15.98
2023-02-09T05:15:31.884Z,18.92
2023-02-09T05:16:08.186Z,18.50
2023-02-09T05:16:42.604Z,16.33
2023-02-09T05:17:21.668Z,17.17
2023-02-09T05:17:55.873Z,14.00
2023-02-09T05:18:29.501Z,14.85
2023-02-09T05:19:03.686Z,15.02
2023-02-09T05:19:40.028Z,13.45
2023-02-09T05:20:14.832Z,14.52
2023-02-09T05:20:49.222Z,15.43
2023-02-09T05:21:24.550Z,15.00
2023-02-09T05:21:57.612Z,15.75
2023-02-09T05:22:31.633Z,16.75
2023-02-09T05:23:07.147Z,16.40
2023-02-09T05:23:41.410Z,15.52
2023-02-09T05:24:15.552Z,15.13
2023-02-09T05:24:51.506Z,15.75
2023-02-09T05:25:26.793Z,14.82
2023-02-09T05:26:01.415Z,15.38
2023-02-09T05:26:35.615Z,16.67
2023-02-09T05:27:09.428Z,16.70
2023-02-09T05:27:43.509Z,16.33
2023-02-09T05:28:18.754Z,15.98
2023-02-09T05:28:52.478Z,17.08
2023-02-09T05:29:28.227Z,18.00
2023-02-09T05:30:01.928Z,17.50
2023-02-09T05:30:35.445Z,17.30
2023-02-09T05:31:09.845Z,18.02
2023-02-09T05:31:43.872Z,19.38
2023-02-09T05:32:18.232Z,16.90
2023-02-09T05:32:54.525Z,20.88
2023-02-09T05:33:28.167Z,17.25
2023-02-09T05:34:02.554Z,15.80
2023-02-09T05:34:37.929Z,20.92
2023-02-09T05:35:13.705Z,19.15
2023-02-09T05:35:49.439Z,17.17
2023-02-09T05:36:23.553Z,17.67
2023-02-09T05:36:59.418Z,15.35
2023-02-09T05:37:33.987Z,18.63
2023-02-09T05:38:08.257Z,20.83
2023-02-09T05:38:43.766Z,22.88
2023-02-09T05:39:17.761Z,20.88
2023-02-09T05:39:52.619Z,18.80
2023-02-09T05:40:28.564Z,19.35
2023-02-09T05:41:04.370Z,20.23
2023-02-09T05:41:57.030Z,20.33
2023-02-09T05:42:32.235Z,18.17
2023-02-09T05:43:05.536Z,19.35
2023-02-09T05:43:41.042Z,17.10
2023-02-09T05:44:16.313Z,17.90
2023-02-09T05:44:50.411Z,15.63
2023-02-09T05:45:25.491Z,17.63
2023-02-09T05:45:59.926Z,21.48
2023-02-09T05:46:34.679Z,17.52
2023-02-09T05:47:09.733Z,19.65
2023-02-09T05:47:43.531Z,25.50
2023-02-09T05:48:18.193Z,23.42
2023-02-09T05:48:52.798Z,24.63
2023-02-09T05:49:25.934Z,20.52
2023-02-09T05:49:59.617Z,24.42
2023-02-09T05:50:36.350Z,17.73
2023-02-09T05:51:14.923Z,22.48
2023-02-09T05:51:48.794Z,17.50
2023-02-09T05:52:24.570Z,27.52
2023-02-09T05:53:00.423Z,19.25
2023-02-09T05:53:35.288Z,35.90
2023-02-09T05:54:11.291Z,23.67
2023-02-09T05:54:44.716Z,19.10
2023-02-09T05:55:19.119Z,18.00
2023-02-09T05:55:55.004Z,17.17
2023-02-09T05:56:30.887Z,16.25
2023-02-09T05:57:05.201Z,18.55
2023-02-09T05:57:39.843Z,19.92
2023-02-09T05:58:13.839Z,18.48
2023-02-09T05:58:47.630Z,23.98
2023-02-09T05:59:23.949Z,17.50
2023-02-09T05:59:58.787Z,21.42
2023-02-09T06:00:33.412Z,18.92
2023-02-09T06:01:07.681Z,18.63
2023-02-09T06:01:41.982Z,17.75
2023-02-09T06:02:17.765Z,18.52
2023-02-09T06:02:52.122Z,17.83
2023-02-09T06:03:26.510Z,19.58
2023-02-09T06:04:02.295Z,20.20
2023-02-09T06:04:36.686Z,18.48
2023-02-09T06:05:11.925Z,18.52
2023-02-09T06:05:47.576Z,16.67
2023-02-09T06:06:22.717Z,18.00
2023-02-09T06:06:57.631Z,20.42
2023-02-09T06:07:32.998Z,23.65
2023-02-09T06:08:06.942Z,20.98
2023-02-09T06:08:42.464Z,20.95
2023-02-09T06:09:17.114Z,20.30
2023-02-09T06:09:50.965Z,21.08
2023-02-09T06:10:25.677Z,24.08
2023-02-09T06:11:00.257Z,23.17
2023-02-09T06:11:35.102Z,24.17
2023-02-09T06:12:10.645Z,19.70
2023-02-09T06:12:44.433Z,21.20
2023-02-09T06:13:19.015Z,27.35
2023-02-09T06:13:53.618Z,21.55
2023-02-09T06:14:28.314Z,25.52
2023-02-09T06:15:03.678Z,26.17
2023-02-09T06:15:38.364Z,30.45
2023-02-09T06:16:11.994Z,25.80
2023-02-09T06:16:48.177Z,24.58
2023-02-09T06:17:22.889Z,20.63
2023-02-09T06:17:57.663Z,21.15
2023-02-09T06:18:31.180Z,22.85
2023-02-09T06:19:05.356Z,23.23
2023-02-09T06:19:40.576Z,20.38
2023-02-09T06:20:14.439Z,25.30
2023-02-09T06:20:50.567Z,23.27
2023-02-09T06:21:25.804Z,23.75
2023-02-09T06:22:00.286Z,24.85
2023-02-09T06:22:35.140Z,27.35
2023-02-09T06:23:10.308Z,19.55
2023-02-09T06:23:44.334Z,28.75
2023-02-09T06:24:18.046Z,25.60
2023-02-09T06:24:53.665Z,24.05
2023-02-09T06:25:27.719Z,24.13
2023-02-09T06:26:02.021Z,25.23
2023-02-09T06:26:37.312Z,21.10
2023-02-09T06:27:13.625Z,26.15
2023-02-09T06:27:47.806Z,21.17
2023-02-09T06:28:22.994Z,22.27
2023-02-09T06:28:56.921Z,24.50
2023-02-09T06:29:32.691Z,25.80
2023-02-09T06:30:07.217Z,25.20
2023-02-09T06:30:41.573Z,24.13
2023-02-09T06:31:16.147Z,21.85
2023-02-09T06:31:51.016Z,20.83
2023-02-09T06:32:26.371Z,31.10
2023-02-09T06:33:02.267Z,32.20
2023-02-09T06:33:35.886Z,23.92
2023-02-09T06:34:10.610Z,29.55
2023-02-09T06:34:45.166Z,26.08
2023-02-09T06:35:20.521Z,25.55
2023-02-09T06:35:55.107Z,23.08
2023-02-09T06:36:29.328Z,19.95
2023-02-09T06:37:04.190Z,29.02
2023-02-09T06:37:38.529Z,22.10
2023-02-09T06:38:12.280Z,25.80
2023-02-09T06:38:46.376Z,23.25
2023-02-09T06:39:19.917Z,23.98
2023-02-09T06:39:54.855Z,27.00
2023-02-09T06:40:29.887Z,23.38
2023-02-09T06:41:03.283Z,21.92
2023-02-09T06:41:38.765Z,22.60
2023-02-09T06:42:13.852Z,24.15
2023-02-09T06:42:48.347Z,23.63
2023-02-09T06:43:21.965Z,32.05
2023-02-09T06:43:54.970Z,28.13
2023-02-09T06:44:30.426Z,23.60
2023-02-09T06:45:04.150Z,22.85
2023-02-09T06:45:40.043Z,28.20
2023-02-09T06:46:15.746Z,24.95
2023-02-09T06:46:48.909Z,26.77
2023-02-09T06:47:24.001Z,26.65
2023-02-09T06:47:57.646Z,25.60
2023-02-09T06:48:32.732Z,25.40
2023-02-09T06:49:08.204Z,26.77
2023-02-09T06:49:42.567Z,27.55
2023-02-09T06:50:18.945Z,39.75
2023-02-09T06:50:53.780Z,24.58
2023-02-09T06:51:30.637Z,25.15
2023-02-09T06:52:06.242Z,25.55
2023-02-09T06:52:39.308Z,26.95
2023-02-09T06:53:15.256Z,23.50
2023-02-09T06:53:50.645Z,23.70
2023-02-09T06:54:26.397Z,24.55
2023-02-09T06:55:00.002Z,21.73
2023-02-09T06:55:33.667Z,21.95
2023-02-09T06:56:09.753Z,23.00
2023-02-09T06:56:43.930Z,23.90
2023-02-09T06:57:18.739Z,25.40
2023-02-09T06:57:53.450Z,22.67
2023-02-09T06:58:27.387Z,22.48
2023-02-09T06:59:02.230Z,25.83
2023-02-09T06:59:35.997Z,25.63
2023-02-09T07:00:10.336Z,23.38
2023-02-09T07:00:45.202Z,28.17
2023-02-09T07:01:19.577Z,23.80
2023-02-09T07:01:55.256Z,23.65
2023-02-09T07:02:29.694Z,27.48
2023-02-09T07:03:04.567Z,26.23
2023-02-09T07:03:38.878Z,27.25
2023-02-09T07:04:13.765Z,24.40
2023-02-09T07:04:47.892Z,24.58
2023-02-09T07:05:23.875Z,24.65
2023-02-09T07:05:57.375Z,29.13
2023-02-09T07:06:33.249Z,23.98
2023-02-09T07:07:07.474Z,24.85
2023-02-09T07:07:42.743Z,26.85
2023-02-09T07:08:19.509Z,30.33
2023-02-09T07:08:52.683Z,23.42
2023-02-09T07:09:27.581Z,26.85
2023-02-09T07:10:01.104Z,28.35
2023-02-09T07:10:35.505Z,26.23
2023-02-09T07:11:11.487Z,25.48
2023-02-09T07:11:45.154Z,22.88
2023-02-09T07:12:20.046Z,26.75
2023-02-09T07:12:53.810Z,22.40
2023-02-09T07:13:29.104Z,29.83
2023-02-09T07:14:03.554Z,25.35
2023-02-09T07:14:40.175Z,30.88
2023-02-09T07:15:15.449Z,24.58
2023-02-09T07:15:56.427Z,26.67
2023-02-09T07:16:30.111Z,29.50
2023-02-09T07:17:05.302Z,21.73
2023-02-09T07:17:39.383Z,25.38
2023-02-09T07:18:15.641Z,26.05
2023-02-09T07:18:49.224Z,26.17
2023-02-09T07:19:24.794Z,29.13
2023-02-09T07:19:59.162Z,23.48
2023-02-09T07:20:33.438Z,21.08
2023-02-09T07:21:09.203Z,23.00
2023-02-09T07:21:44.769Z,22.27
2023-02-09T07:22:19.136Z,23.98
2023-02-09T07:22:54.966Z,23.50
2023-02-09T07:23:29.086Z,25.95
2023-02-09T07:24:05.020Z,24.38
2023-02-09T07:24:39.319Z,22.77
2023-02-09T07:25:13.403Z,27.83
2023-02-09T07:25:47.494Z,24.48
2023-02-09T07:26:21.577Z,31.35
2023-02-09T07:26:56.685Z,42.63
2023-02-09T07:27:30.545Z,31.48
2023-02-09T07:28:05.672Z,27.90
2023-02-09T07:28:40.655Z,27.10
2023-02-09T07:29:14.156Z,25.65
2023-02-09T07:29:49.828Z,30.10
2023-02-09T07:30:23.919Z,25.50
2023-02-09T07:31:03.948Z,30.75
2023-02-09T07:31:38.353Z,29.85
2023-02-09T07:32:14.328Z,26.92
2023-02-09T07:32:49.000Z,23.65
2023-02-09T07:33:24.665Z,26.63
2023-02-09T07:33:59.285Z,30.48
2023-02-09T07:34:34.309Z,28.27
2023-02-09T07:35:09.309Z,25.83
2023-02-09T07:35:44.000Z,28.02
2023-02-09T07:36:18.977Z,26.25
2023-02-09T07:36:55.711Z,29.55
2023-02-09T07:37:31.196Z,22.25
2023-02-09T07:38:06.492Z,24.80
2023-02-09T07:38:41.686Z,25.17
2023-02-09T07:39:16.818Z,25.20
2023-02-09T07:39:51.442Z,27.02
2023-02-09T07:40:26.012Z,20.65
2023-02-09T07:41:00.455Z,47.28
2023-02-09T07:41:35.531Z,31.05
2023-02-09T07:42:10.089Z,29.10
2023-02-09T07:43:00.575Z,29.88